Time;durP1;ratioP1;P1;durP2;ratioP2;P2;SDS_P1;SDS_P2;PMS_P1;PMS_P2;Temp;Humidity;BMP_temperature;BMP_pressure;BME280_temperature;BME280_humidity;BME280_pressure;Samples;Min_cycle;Max_cycle;Signal;HPM_P1;HPM_P2
2023/02/08 00:02:13;;;;;;;18.07;11.63;;;;;;;-4.06;100.00;100190.19;5073485;28;20231;-79
2023/02/08 00:04:39;;;;;;;17.20;11.53;;;;;;;-4.03;100.00;100179.06;5073164;28;20212;-79
2023/02/08 00:07:06;;;;;;;20.23;11.17;;;;;;;-4.07;100.00;100182.41;5073264;28;20206;-79
2023/02/08 00:09:32;;;;;;;18.60;11.90;;;;;;;-4.04;100.00;100172.16;5072877;28;20207;-79
2023/02/08 00:11:59;;;;;;;17.30;11.23;;;;;;;-4.05;100.00;100175.53;5073323;28;20208;-79
2023/02/08 00:14:25;;;;;;;17.97;11.30;;;;;;;-4.09;100.00;100166.88;5073107;28;20207;-79
2023/02/08 00:16:53;;;;;;;18.97;11.93;;;;;;;-4.14;100.00;100165.03;5073137;28;20250;-79
2023/02/08 00:19:19;;;;;;;17.63;11.97;;;;;;;-4.15;100.00;100164.16;5072752;28;20604;-79
2023/02/08 00:21:46;;;;;;;16.77;11.77;;;;;;;-4.19;100.00;100153.75;5072905;28;20690;-79
2023/02/08 00:24:12;;;;;;;17.10;11.23;;;;;;;-4.20;100.00;100154.59;5073171;28;20214;-79
2023/02/08 00:26:39;;;;;;;21.17;12.10;;;;;;;-4.25;100.00;100156.19;5073054;28;20227;-79
2023/02/08 00:29:05;;;;;;;17.60;11.50;;;;;;;-4.24;100.00;100152.75;5072389;28;20223;-79
2023/02/08 00:31:32;;;;;;;18.07;10.67;;;;;;;-4.31;100.00;100146.63;5072773;28;20235;-79
2023/02/08 00:34:00;;;;;;;18.80;11.27;;;;;;;-4.30;100.00;100147.47;5072603;28;20208;-79
2023/02/08 00:36:26;;;;;;;20.80;11.43;;;;;;;-4.31;100.00;100145.75;5072280;28;20721;-79
2023/02/08 00:38:52;;;;;;;15.03;10.50;;;;;;;-4.35;100.00;100149.13;5072458;28;20564;-79
2023/02/08 00:41:19;;;;;;;16.10;10.63;;;;;;;-4.39;100.00;100144.72;5072523;28;20231;-79
2023/02/08 00:43:46;;;;;;;18.37;10.33;;;;;;;-4.34;100.00;100151.69;5072339;28;20213;-79
2023/02/08 00:46:12;;;;;;;17.17;10.37;;;;;;;-4.32;100.00;100144.00;5071710;28;20250;-79
2023/02/08 00:48:38;;;;;;;13.80;9.10;;;;;;;-4.36;100.00;100147.34;5072138;28;20212;-79
2023/02/08 00:51:08;;;;;;;13.83;9.53;;;;;;;-4.31;100.00;100149.22;5072333;28;20219;-79
2023/02/08 00:53:37;;;;;;;15.53;11.27;;;;;;;-4.29;100.00;100147.50;5072366;28;20806;-79
2023/02/08 00:56:04;;;;;;;15.23;10.53;;;;;;;-4.26;100.00;100146.72;5072048;28;20722;-79
2023/02/08 00:58:30;;;;;;;18.27;11.10;;;;;;;-4.25;100.00;100145.88;5072073;28;20215;-79
2023/02/08 01:00:57;;;;;;;16.73;10.77;;;;;;;-4.30;100.00;100148.34;5071758;28;20217;-79
2023/02/08 01:03:24;;;;;;;17.40;11.27;;;;;;;-4.35;100.00;100155.13;5071945;28;20214;-79
2023/02/08 01:05:50;;;;;;;14.40;10.87;;;;;;;-4.42;100.00;100157.53;5071867;28;20242;-79
2023/02/08 01:08:19;;;;;;;18.87;11.93;;;;;;;-4.41;100.00;100154.16;5071975;28;20208;-79
2023/02/08 01:10:46;;;;;;;16.47;11.57;;;;;;;-4.44;100.00;100170.44;5071469;28;20253;-79
2023/02/08 01:13:13;;;;;;;22.43;12.20;;;;;;;-4.47;100.00;100165.19;5071749;28;20211;-79
2023/02/08 01:15:39;;;;;;;18.83;12.33;;;;;;;-4.46;100.00;100150.59;5071566;28;20228;-79
2023/02/08 01:18:06;;;;;;;20.80;12.40;;;;;;;-4.49;100.00;100163.41;5071536;28;20228;-79
2023/02/08 01:20:35;;;;;;;16.37;10.97;;;;;;;-4.51;100.00;100162.50;5071528;28;20210;-79
2023/02/08 01:23:01;;;;;;;20.03;12.30;;;;;;;-4.52;100.00;100161.63;5071464;28;20221;-79
2023/02/08 01:25:29;;;;;;;19.00;11.70;;;;;;;-4.56;100.00;100148.63;5071610;28;20246;-79
2023/02/08 01:27:56;;;;;;;17.13;12.40;;;;;;;-4.56;100.00;100157.25;5071500;28;20212;-79
2023/02/08 01:30:22;;;;;;;18.63;12.53;;;;;;;-4.55;100.00;100161.56;5071246;28;20262;-79
2023/02/08 01:32:49;;;;;;;21.17;12.50;;;;;;;-4.46;100.00;100154.03;5071531;28;20222;-79
2023/02/08 01:35:15;;;;;;;19.37;13.00;;;;;;;-4.51;100.00;100147.91;5071353;28;20232;-79
2023/02/08 01:37:42;;;;;;;18.47;12.33;;;;;;;-4.59;100.00;100148.56;5071286;28;20336;-79
2023/02/08 01:40:10;;;;;;;21.60;12.60;;;;;;;-4.61;100.00;100140.78;5071143;28;20212;-79
2023/02/08 01:42:38;;;;;;;16.50;12.17;;;;;;;-4.56;100.00;100133.16;5071354;28;20225;-79
2023/02/08 01:45:29;;;;;;;20.20;12.03;;;;;;;-4.50;100.00;100139.31;5071165;28;20229;-79
2023/02/08 01:48:06;;;;;;;19.97;11.73;;;;;;;-4.50;100.00;100139.31;5071672;28;20210;-79
2023/02/08 01:50:40;;;;;;;19.37;11.57;;;;;;;-4.48;100.00;100134.19;5071182;28;20213;-79
2023/02/08 01:53:06;;;;;;;17.83;11.37;;;;;;;-4.45;100.00;100136.84;5071428;28;20217;-78
2023/02/08 01:55:38;;;;;;;18.87;11.37;;;;;;;-4.51;100.00;100128.97;5071024;28;20281;-79
2023/02/08 01:58:10;;;;;;;18.03;11.67;;;;;;;-4.54;100.00;100126.31;5071416;28;20229;-79
2023/02/08 02:00:36;;;;;;;18.33;10.73;;;;;;;-4.63;100.00;100120.97;5069879;28;20584;-79
2023/02/08 02:03:04;;;;;;;18.83;11.43;;;;;;;-4.62;100.00;100117.53;5071247;28;20211;-79
2023/02/08 02:05:35;;;;;;;18.20;11.00;;;;;;;-4.70;100.00;100116.50;5070957;28;20236;-79
2023/02/08 02:08:02;;;;;;;14.53;10.57;;;;;;;-4.73;100.00;100114.72;5070966;28;20531;-79
2023/02/08 02:10:31;;;;;;;17.03;11.33;;;;;;;-4.63;100.00;100113.22;5070587;28;20688;-79
2023/02/08 02:13:03;;;;;;;15.73;10.67;;;;;;;-4.66;100.00;100103.69;5071111;28;20621;-78
2023/02/08 02:15:31;;;;;;;16.80;10.70;;;;;;;-4.66;100.00;100097.66;5070948;28;20609;-78
2023/02/08 02:17:58;;;;;;;15.83;10.77;;;;;;;-4.71;100.00;100101.88;5070903;28;20357;-80
2023/02/08 02:20:38;;;;;;;17.30;11.47;;;;;;;-4.66;100.00;100098.53;5070496;28;20209;-80
2023/02/08 02:23:35;;;;;;;17.80;10.70;;;;;;;-4.61;100.00;100096.06;5071019;28;20218;-80
2023/02/08 02:26:24;;;;;;;17.27;10.40;;;;;;;-4.68;100.00;100086.44;5070724;28;20227;-80
2023/02/08 02:29:23;;;;;;;16.77;11.10;;;;;;;-4.80;100.00;100087.06;5070594;28;20229;-80
2023/02/08 02:32:07;;;;;;;13.37;8.77;;;;;;;-4.90;100.00;100090.25;5057949;28;20577;-79
2023/02/08 02:34:40;;;;;;;14.43;9.37;;;;;;;-4.94;100.00;100087.59;5070909;28;20232;-79
2023/02/08 02:37:17;;;;;;;15.53;10.07;;;;;;;-4.94;100.00;100090.16;5070681;28;20592;-79
2023/02/08 02:39:50;;;;;;;15.40;10.00;;;;;;;-4.88;100.00;100092.88;5070557;28;20213;-79
2023/02/08 02:45:20;;;;;;;14.50;10.17;;;;;;;-4.72;100.00;100085.50;5070611;28;20228;-79
2023/02/08 02:47:55;;;;;;;15.30;9.93;;;;;;;-4.67;100.00;100085.59;5070904;28;20203;-79
2023/02/08 02:50:29;;;;;;;16.50;9.90;;;;;;;-4.71;100.00;100086.41;5070585;28;20207;-79
2023/02/08 02:53:00;;;;;;;14.47;9.77;;;;;;;-4.81;100.00;100084.44;5070720;28;20220;-79
2023/02/08 02:55:32;;;;;;;16.17;10.67;;;;;;;-4.91;100.00;100087.63;5070587;28;20258;-79
2023/02/08 02:58:01;;;;;;;14.47;10.47;;;;;;;-4.96;100.00;100087.53;5070519;28;20258;-79
2023/02/08 03:00:30;;;;;;;16.00;10.67;;;;;;;-5.03;100.00;100097.66;5070276;28;20207;-79
2023/02/08 03:02:58;;;;;;;16.07;10.30;;;;;;;-5.02;100.00;100095.13;5070739;28;20208;-79
2023/02/08 03:05:25;;;;;;;17.87;10.47;;;;;;;-4.97;100.00;100088.38;5070351;28;20254;-79
2023/02/08 03:08:18;;;;;;;19.10;10.73;;;;;;;-4.94;100.00;100097.91;5070528;28;20584;-79
2023/02/08 03:11:04;;;;;;;16.50;10.13;;;;;;;-4.93;100.00;100099.63;5050262;28;20213;-80
2023/02/08 03:13:44;;;;;;;18.73;10.97;;;;;;;-4.99;100.00;100094.34;5074350;28;20247;-79
2023/02/08 03:16:17;;;;;;;15.00;10.40;;;;;;;-5.02;100.00;100099.44;5074279;28;20231;-79
2023/02/08 03:18:57;;;;;;;15.07;10.63;;;;;;;-5.06;100.00;100097.63;5074513;28;20765;-79
2023/02/08 03:21:34;;;;;;;16.57;10.67;;;;;;;-4.96;100.00;100104.75;5078345;28;20327;-79
2023/02/08 03:24:06;;;;;;;18.13;10.13;;;;;;;-4.97;100.00;100097.81;5076929;28;20204;-79
2023/02/08 03:26:38;;;;;;;15.93;10.97;;;;;;;-5.01;100.00;100106.34;5078123;28;20235;-79
2023/02/08 03:29:11;;;;;;;16.00;10.33;;;;;;;-5.06;100.00;100097.63;5082889;28;20233;-79
2023/02/08 03:31:42;;;;;;;14.33;10.20;;;;;;;-5.15;100.00;100098.28;5082294;28;20203;-79
2023/02/08 03:34:14;;;;;;;20.07;11.40;;;;;;;-5.16;100.00;100100.81;5074805;28;20219;-79
2023/02/08 03:36:43;;;;;;;16.27;9.80;;;;;;;-5.22;100.00;100101.53;5074527;28;20610;-79
2023/02/08 03:39:13;;;;;;;15.03;9.80;;;;;;;-5.27;100.00;100102.25;5073888;28;20209;-79
2023/02/08 03:41:45;;;;;;;19.77;10.53;;;;;;;-5.11;100.00;100096.63;5074558;28;20192;-79
2023/02/08 03:44:16;;;;;;;15.87;10.10;;;;;;;-5.15;100.00;100102.53;5074336;28;20209;-79
2023/02/08 03:46:48;;;;;;;16.67;10.70;;;;;;;-5.19;100.00;100096.44;5073985;28;20590;-79
2023/02/08 03:49:21;;;;;;;15.13;10.77;;;;;;;-5.20;100.00;100099.00;5073426;28;20209;-79
2023/02/08 03:51:49;;;;;;;15.53;10.03;;;;;;;-5.20;100.00;100093.84;5073894;28;20214;-79
2023/02/08 03:54:19;;;;;;;18.07;10.47;;;;;;;-5.28;100.00;100090.19;5073567;28;20207;-79
2023/02/08 03:56:54;;;;;;;18.43;10.40;;;;;;;-5.14;100.00;100094.00;5073894;28;20199;-79
2023/02/08 03:59:24;;;;;;;16.73;10.07;;;;;;;-5.26;100.00;100104.00;5073349;28;20207;-79
2023/02/08 04:01:56;;;;;;;15.57;10.70;;;;;;;-5.35;100.00;100101.19;5073607;28;20223;-79
2023/02/08 04:04:26;;;;;;;18.23;10.70;;;;;;;-5.35;100.00;100099.50;5073274;28;20264;-79
2023/02/08 04:06:53;;;;;;;16.50;11.00;;;;;;;-5.34;100.00;100100.34;5073294;28;20697;-79
2023/02/08 04:09:19;;;;;;;18.90;10.93;;;;;;;-5.34;100.00;100105.50;5072923;28;20218;-79
2023/02/08 04:11:46;;;;;;;16.87;10.67;;;;;;;-5.36;100.00;100107.19;5073284;28;20587;-79
2023/02/08 04:14:12;;;;;;;17.20;10.87;;;;;;;-5.37;100.00;100102.88;5073191;28;20211;-79
2023/02/08 04:16:39;;;;;;;17.17;9.87;;;;;;;-5.27;100.00;100094.50;5073050;28;20234;-79
2023/02/08 04:19:05;;;;;;;16.53;10.20;;;;;;;-5.18;100.00;100092.19;5073037;28;20566;-79
2023/02/08 04:21:33;;;;;;;19.60;10.60;;;;;;;-5.12;100.00;100092.31;5072104;28;20242;-79
2023/02/08 04:23:59;;;;;;;15.10;9.57;;;;;;;-5.11;100.00;100091.47;5072884;28;20224;-78
2023/02/08 04:26:26;;;;;;;15.73;9.87;;;;;;;-5.11;100.00;100088.91;5072927;28;20259;-79
2023/02/08 04:28:53;;;;;;;17.00;10.40;;;;;;;-5.07;100.00;100083.00;5072608;28;20212;-79
2023/02/08 04:31:19;;;;;;;16.50;9.70;;;;;;;-5.05;100.00;100079.63;5072670;28;20218;-78
2023/02/08 04:33:46;;;;;;;17.77;10.93;;;;;;;-5.10;100.00;100085.47;5072715;28;20210;-79
2023/02/08 04:36:12;;;;;;;17.57;11.07;;;;;;;-5.11;100.00;100083.75;5072528;28;20713;-79
2023/02/08 04:38:40;;;;;;;15.80;10.40;;;;;;;-5.07;100.00;100083.00;5072671;28;20228;-78
2023/02/08 04:41:06;;;;;;;15.67;9.67;;;;;;;-5.10;100.00;100082.91;5072387;28;20220;-78
2023/02/08 04:43:33;;;;;;;15.80;9.97;;;;;;;-5.16;100.00;100082.75;5072731;28;20212;-78
2023/02/08 04:45:59;;;;;;;15.80;10.27;;;;;;;-5.13;100.00;100080.28;5072552;28;20234;-78
2023/02/08 04:48:26;;;;;;;19.93;11.07;;;;;;;-5.11;100.00;100082.06;5072142;28;20802;-80
2023/02/08 04:50:55;;;;;;;18.13;11.60;;;;;;;-5.17;100.00;100083.59;5072209;28;20595;-80
2023/02/08 04:53:21;;;;;;;15.47;10.57;;;;;;;-5.16;100.00;100080.19;5072249;28;20207;-78
2023/02/08 04:55:49;;;;;;;17.33;10.20;;;;;;;-5.19;100.00;100074.97;5072195;28;20227;-80
2023/02/08 04:58:16;;;;;;;18.23;9.87;;;;;;;-5.22;100.00;100074.88;5072165;28;20228;-78
2023/02/08 05:00:42;;;;;;;15.83;10.77;;;;;;;-5.22;100.00;100072.31;5071661;28;20229;-79
2023/02/08 05:03:09;;;;;;;14.87;10.23;;;;;;;-5.18;100.00;100068.97;5072376;28;20212;-80
2023/02/08 05:05:36;;;;;;;15.00;9.87;;;;;;;-5.15;100.00;100069.03;5068776;23;20242;-77
2023/02/08 05:08:03;;;;;;;15.53;10.40;;;;;;;-5.19;100.00;100062.94;5012630;28;20215;-76
2023/02/08 05:10:29;;;;;;;15.30;10.13;;;;;;;-5.23;100.00;100062.84;5011878;28;20210;-76
2023/02/08 05:12:57;;;;;;;19.07;10.63;;;;;;;-5.24;100.00;100058.53;5012525;28;20216;-77
2023/02/08 05:15:24;;;;;;;18.13;9.97;;;;;;;-5.22;100.00;100062.88;5012308;28;20244;-77
2023/02/08 05:17:50;;;;;;;18.83;10.37;;;;;;;-5.29;100.00;100062.69;5012557;28;20237;-77
2023/02/08 05:20:17;;;;;;;18.23;10.23;;;;;;;-5.36;100.00;100051.41;5012355;28;20206;-77
2023/02/08 05:22:43;;;;;;;17.93;10.47;;;;;;;-5.43;100.00;100062.34;5012488;28;20222;-76
2023/02/08 05:25:10;;;;;;;17.30;10.37;;;;;;;-5.46;100.00;100058.84;5012175;28;20230;-76
2023/02/08 05:27:37;;;;;;;19.13;11.40;;;;;;;-5.42;100.00;100068.41;5012280;28;20205;-77
2023/02/08 05:30:06;;;;;;;16.67;10.90;;;;;;;-5.38;100.00;100057.34;5011830;28;20268;-77
2023/02/08 05:32:32;;;;;;;18.73;10.73;;;;;;;-5.37;100.00;100061.66;5012169;28;20294;-77
2023/02/08 05:34:59;;;;;;;15.13;9.23;;;;;;;-5.23;100.00;100062.84;5012199;28;20213;-77
2023/02/08 05:37:25;;;;;;;14.67;10.00;;;;;;;-5.16;100.00;100059.56;5012002;28;20305;-77
2023/02/08 05:39:52;;;;;;;16.20;10.00;;;;;;;-5.09;100.00;100056.28;5011842;28;20214;-77
2023/02/08 05:42:18;;;;;;;14.40;9.67;;;;;;;-5.02;100.00;100053.03;5012070;28;20216;-77
2023/02/08 05:44:44;;;;;;;16.33;10.00;;;;;;;-4.94;98.89;100048.91;5011883;28;20213;-77
2023/02/08 05:47:12;;;;;;;15.30;9.73;;;;;;;-4.94;97.51;100054.06;5011933;28;20207;-77
2023/02/08 05:49:39;;;;;;;14.67;9.43;;;;;;;-4.99;96.63;100047.94;5011468;28;20209;-77
2023/02/08 05:52:05;;;;;;;15.13;9.67;;;;;;;-5.13;96.69;100049.34;5012021;28;20221;-77
2023/02/08 05:54:32;;;;;;;18.60;10.40;;;;;;;-5.22;96.88;100056.84;5011863;28;20590;-77
2023/02/08 05:56:58;;;;;;;14.63;9.40;;;;;;;-5.30;96.94;100055.81;5011759;28;20233;-77
2023/02/08 05:59:25;;;;;;;14.67;9.07;;;;;;;-5.34;97.37;100059.13;5011764;28;20230;-77
2023/02/08 06:01:51;;;;;;;15.03;9.17;;;;;;;-5.38;98.04;100067.66;5012202;28;20217;-76
2023/02/08 06:04:19;;;;;;;16.23;9.93;;;;;;;-5.41;98.66;100064.97;5012170;28;20217;-77
2023/02/08 06:06:45;;;;;;;15.67;10.03;;;;;;;-5.50;98.93;100067.34;5011644;28;20243;-77
2023/02/08 06:09:12;;;;;;;17.97;10.13;;;;;;;-5.57;100.00;100075.75;5011351;28;20209;-77
2023/02/08 06:11:38;;;;;;;14.17;9.30;;;;;;;-5.63;100.00;100080.75;5011447;28;20719;-77
2023/02/08 06:14:05;;;;;;;15.97;9.27;;;;;;;-5.61;100.00;100068.78;5011803;28;20240;-76
2023/02/08 06:16:31;;;;;;;15.53;9.97;;;;;;;-5.65;100.00;100069.53;5011489;28;20229;-77
2023/02/08 06:18:58;;;;;;;16.60;9.77;;;;;;;-5.73;100.00;100073.63;5011311;28;20618;-77
2023/02/08 06:21:27;;;;;;;17.87;10.50;;;;;;;-5.70;100.00;100074.56;5011479;28;20221;-77
2023/02/08 06:23:53;;;;;;;16.07;9.50;;;;;;;-5.70;100.00;100084.88;5011617;28;20329;-77
2023/02/08 06:26:20;;;;;;;16.63;10.60;;;;;;;-5.68;100.00;100079.78;5011333;28;20694;-77
2023/02/08 06:28:48;;;;;;;17.97;9.73;;;;;;;-5.70;100.00;100084.00;5011524;28;20201;-77
2023/02/08 06:31:14;;;;;;;16.40;9.77;;;;;;;-5.69;100.00;100086.59;5011531;28;20213;-77
2023/02/08 06:33:41;;;;;;;13.80;9.37;;;;;;;-5.70;100.00;100079.72;5011515;28;20211;-77
2023/02/08 06:36:08;;;;;;;17.37;10.17;;;;;;;-5.76;100.00;100083.84;5011340;28;20237;-76
2023/02/08 06:38:36;;;;;;;17.00;10.53;;;;;;;-5.71;100.00;100083.13;5011156;28;20244;-77
2023/02/08 06:41:02;;;;;;;16.77;9.97;;;;;;;-5.77;100.00;100077.81;5011365;28;20604;-77
2023/02/08 06:43:29;;;;;;;17.97;10.67;;;;;;;-5.77;100.00;100076.94;5012233;28;20584;-77
2023/02/08 06:45:57;;;;;;;16.00;10.40;;;;;;;-5.78;100.00;100075.22;5015333;28;20595;-77
2023/02/08 06:48:23;;;;;;;14.30;9.80;;;;;;;-5.86;100.00;100081.91;5015205;28;20304;-77
2023/02/08 06:50:52;;;;;;;16.10;10.13;;;;;;;-5.86;100.00;100081.91;5014881;28;20206;-76
2023/02/08 06:53:18;;;;;;;16.03;10.17;;;;;;;-5.86;100.00;100087.06;5014985;28;20205;-76
2023/02/08 06:55:49;;;;;;;17.20;10.40;;;;;;;-5.86;100.00;100092.19;5015232;28;20231;-77
2023/02/08 06:58:16;;;;;;;16.77;10.73;;;;;;;-5.91;100.00;100088.63;5015171;28;20240;-78
2023/02/08 07:00:44;;;;;;;17.77;10.23;;;;;;;-5.90;100.00;100090.38;5014742;28;20216;-76
2023/02/08 07:03:11;;;;;;;18.00;10.93;;;;;;;-5.88;100.00;100102.44;5015011;28;20260;-77
2023/02/08 07:05:38;;;;;;;20.10;10.93;;;;;;;-5.88;100.00;100093.84;5014722;28;20241;-77
2023/02/08 07:08:05;;;;;;;18.13;10.70;;;;;;;-5.85;100.00;100096.50;5014776;28;20205;-77
2023/02/08 07:10:32;;;;;;;21.67;11.77;;;;;;;-5.70;100.00;100102.00;5014705;28;20213;-76
2023/02/08 07:13:02;;;;;;;18.67;10.20;;;;;;;-5.75;100.00;100103.63;5015169;28;20209;-77
2023/02/08 07:15:29;;;;;;;18.00;11.10;;;;;;;-5.70;100.00;100110.63;5014674;28;20225;-76
2023/02/08 07:17:56;;;;;;;16.63;11.07;;;;;;;-5.63;100.00;100102.22;5014544;28;20209;-75
2023/02/08 07:20:23;;;;;;;19.93;10.17;;;;;;;-5.47;100.00;100103.47;5014317;28;20217;-76
2023/02/08 07:22:49;;;;;;;16.87;10.40;;;;;;;-5.38;100.00;100099.41;5014575;28;20215;-77
2023/02/08 07:25:16;;;;;;;19.57;10.97;;;;;;;-5.35;100.00;100099.50;5014670;28;20587;-76
2023/02/08 07:27:42;;;;;;;16.73;10.73;;;;;;;-5.28;100.00;100110.81;5014626;28;20212;-76
2023/02/08 07:30:11;;;;;;;17.60;10.63;;;;;;;-5.26;100.00;100101.44;5014083;28;20209;-75
2023/02/08 07:32:37;;;;;;;16.80;10.90;;;;;;;-5.16;100.00;100111.13;5014222;28;20214;-75
2023/02/08 07:35:04;;;;;;;16.70;10.17;;;;;;;-5.16;100.00;100100.81;5014669;28;20458;-75
2023/02/08 07:37:31;;;;;;;19.93;11.27;;;;;;;-5.07;100.00;100108.78;5014462;28;20209;-76
2023/02/08 07:39:58;;;;;;;20.33;10.43;;;;;;;-5.06;99.75;100102.78;5014144;28;20635;-75
2023/02/08 07:42:25;;;;;;;19.50;10.30;;;;;;;-5.02;99.41;100097.72;5014218;28;20652;-76
2023/02/08 07:44:51;;;;;;;18.93;9.90;;;;;;;-4.90;98.80;100094.56;5014099;28;20232;-76
2023/02/08 07:47:19;;;;;;;18.07;10.13;;;;;;;-4.81;96.95;100079.28;5014015;28;20218;-74
2023/02/08 07:49:45;;;;;;;20.40;11.17;;;;;;;-4.71;95.40;100086.41;5013688;28;20222;-75
2023/02/08 07:52:12;;;;;;;18.63;11.10;;;;;;;-4.65;94.11;100081.38;5014248;28;20657;-74
2023/02/08 07:54:40;;;;;;;18.70;10.90;;;;;;;-4.56;93.08;100081.56;5014006;28;20206;-76
2023/02/08 07:57:06;;;;;;;16.10;10.10;;;;;;;-4.39;91.24;100067.28;5013834;28;20234;-76
2023/02/08 07:59:33;;;;;;;17.97;11.67;;;;;;;-4.26;89.86;100071.84;5013501;28;20225;-76
2023/02/08 08:01:59;;;;;;;20.17;11.00;;;;;;;-4.26;88.88;100064.09;5013833;28;20700;-76
2023/02/08 08:04:27;;;;;;;16.80;10.43;;;;;;;-4.27;89.08;100062.38;5014298;28;20214;-76
2023/02/08 08:06:54;;;;;;;18.07;10.57;;;;;;;-4.21;89.40;100063.34;5013648;28;20590;-76
2023/02/08 08:09:20;;;;;;;19.80;10.90;;;;;;;-4.14;90.53;100075.56;5013485;28;20212;-75
2023/02/08 08:11:47;;;;;;;16.77;10.23;;;;;;;-4.07;90.78;100074.84;5013526;28;20214;-75
2023/02/08 08:14:13;;;;;;;18.37;10.83;;;;;;;-4.03;90.96;100078.34;5013428;28;20217;-75
2023/02/08 08:16:41;;;;;;;18.77;11.20;;;;;;;-3.97;91.62;100076.72;5013296;28;20301;-76
2023/02/08 08:19:07;;;;;;;20.57;11.43;;;;;;;-3.90;92.19;100077.72;5013272;28;20581;-76
2023/02/08 08:21:36;;;;;;;19.63;11.43;;;;;;;-3.78;93.07;100077.94;5013196;28;20304;-76
2023/02/08 08:24:03;;;;;;;17.93;11.30;;;;;;;-3.68;93.78;100080.72;5013374;28;20221;-76
2023/02/08 08:26:30;;;;;;;20.63;11.93;;;;;;;-3.59;94.39;100090.34;5013254;28;20232;-78
2023/02/08 08:28:56;;;;;;;17.77;12.03;;;;;;;-3.54;94.21;100099.91;5012467;28;20207;-76
2023/02/08 08:31:23;;;;;;;19.53;12.03;;;;;;;-3.47;94.41;100100.91;5012913;28;20219;-77
2023/02/08 08:33:50;;;;;;;18.43;11.33;;;;;;;-3.49;94.66;100092.25;5013294;28;20593;-76
2023/02/08 08:36:16;;;;;;;17.63;11.40;;;;;;;-3.45;94.62;100094.03;5012893;28;20316;-76
2023/02/08 08:38:44;;;;;;;22.60;11.87;;;;;;;-3.40;94.42;100092.41;5013005;28;20235;-75
2023/02/08 08:41:13;;;;;;;19.60;11.57;;;;;;;-3.41;94.58;100096.72;5012966;28;20221;-75
2023/02/08 08:43:40;;;;;;;20.40;12.50;;;;;;;-3.32;94.71;100088.22;5012883;28;20223;-75
2023/02/08 08:46:07;;;;;;;18.97;12.17;;;;;;;-3.12;93.15;100081.66;5012779;28;20657;-75
2023/02/08 08:48:34;;;;;;;19.63;11.43;;;;;;;-3.18;91.04;100084.16;5012934;28;20210;-76
2023/02/08 08:51:00;;;;;;;19.67;11.57;;;;;;;-3.16;90.75;100065.25;5012569;28;20209;-76
2023/02/08 08:53:27;;;;;;;18.93;11.37;;;;;;;-3.18;90.29;100061.72;5012755;28;20209;-76
2023/02/08 08:55:57;;;;;;;20.50;11.47;;;;;;;-3.05;90.82;100075.75;5022561;28;20221;-76
2023/02/08 08:58:24;;;;;;;19.30;11.80;;;;;;;-3.00;90.57;100072.34;5031183;28;20229;-76
2023/02/08 09:00:51;;;;;;;17.37;11.70;;;;;;;-2.91;91.62;100074.22;5031424;28;20217;-78
2023/02/08 09:03:17;;;;;;;21.00;11.67;;;;;;;-2.73;92.33;100079.66;5031566;28;20210;-75
2023/02/08 09:05:46;;;;;;;18.33;10.97;;;;;;;-2.69;92.40;100074.53;5011000;28;20234;-75
2023/02/08 09:08:12;;;;;;;20.97;11.67;;;;;;;-2.48;90.42;100066.19;5011181;28;20702;-76
2023/02/08 09:10:39;;;;;;;21.67;12.40;;;;;;;-2.32;90.09;100057.78;5011396;28;20265;-76
2023/02/08 09:13:07;;;;;;;16.57;10.83;;;;;;;-2.26;88.97;100047.50;5011969;28;20320;-76
2023/02/08 09:15:34;;;;;;;21.20;12.20;;;;;;;-2.15;89.04;100058.84;5011669;28;20231;-76
2023/02/08 09:18:01;;;;;;;18.23;11.37;;;;;;;-2.15;88.89;100066.63;5011972;28;20216;-76
2023/02/08 09:20:28;;;;;;;15.03;10.53;;;;;;;-2.02;87.16;100050.34;5011352;28;20262;-76
2023/02/08 09:22:55;;;;;;;18.67;11.47;;;;;;;-2.03;84.54;100036.53;5012046;28;20214;-76
2023/02/08 09:25:22;;;;;;;16.87;10.33;;;;;;;-1.96;83.13;100029.69;5011396;28;20235;-75
2023/02/08 09:27:48;;;;;;;15.80;10.30;;;;;;;-1.83;81.27;100023.78;5011878;28;20220;-75
2023/02/08 09:30:17;;;;;;;16.63;10.37;;;;;;;-1.78;80.61;100032.47;5011299;28;20215;-75
2023/02/08 09:32:44;;;;;;;14.50;9.57;;;;;;;-1.64;77.69;100005.81;5011467;28;20211;-75
2023/02/08 09:35:12;;;;;;;18.23;10.33;;;;;;;-1.55;76.66;100015.38;5011250;28;20238;-76
2023/02/08 09:37:38;;;;;;;17.60;10.83;;;;;;;-1.49;76.47;100011.13;5011266;28;20209;-76
2023/02/08 09:40:06;;;;;;;16.50;10.90;;;;;;;-1.41;75.91;100003.41;5010910;28;20243;-76
2023/02/08 09:42:38;;;;;;;16.47;10.23;;;;;;;-1.37;75.53;100008.63;5011395;28;20213;-76
2023/02/08 09:45:29;;;;;;;16.27;11.20;;;;;;;-1.17;77.24;100024.34;5011291;28;20243;-76
2023/02/08 09:48:03;;;;;;;16.93;10.83;;;;;;;-1.11;76.02;100014.00;5011372;28;20714;-76
2023/02/08 09:50:34;;;;;;;16.07;11.03;;;;;;;-1.02;77.02;100021.84;5010789;28;20213;-76
2023/02/08 09:53:08;;;;;;;17.87;11.20;;;;;;;-1.02;76.01;100019.25;5011324;28;20217;-76
2023/02/08 09:55:38;;;;;;;19.87;11.03;;;;;;;-1.00;75.10;100017.56;5011043;28;20239;-76
2023/02/08 09:58:19;;;;;;;16.00;10.93;;;;;;;-0.99;74.60;100003.72;5011203;28;20547;-76
2023/02/08 10:00:49;;;;;;;19.37;10.63;;;;;;;-0.90;75.08;100008.94;5010646;28;20711;-75
2023/02/08 10:03:27;;;;;;;17.93;10.97;;;;;;;-0.85;71.89;99989.06;5011259;28;20220;-75
2023/02/08 10:05:54;;;;;;;17.50;11.07;;;;;;;-0.81;71.01;99983.06;5011750;28;20240;-76
2023/02/08 10:08:21;;;;;;;17.43;11.10;;;;;;;-0.83;70.93;99980.44;5011676;28;20207;-76
2023/02/08 10:10:54;;;;;;;19.63;11.10;;;;;;;-0.78;71.59;99988.25;5011387;28;20221;-75
2023/02/08 10:13:36;;;;;;;17.30;10.30;;;;;;;-0.80;71.62;100000.34;5011506;28;20205;-77
2023/02/08 10:16:13;;;;;;;16.50;10.80;;;;;;;-0.76;72.36;99987.38;5011472;28;20722;-76
2023/02/08 10:18:49;;;;;;;16.17;10.73;;;;;;;-0.74;71.77;99985.66;5012479;28;20215;-76
2023/02/08 10:21:31;;;;;;;17.13;10.43;;;;;;;-0.51;68.85;99957.22;5015786;28;20221;-76
2023/02/08 10:24:18;;;;;;;16.63;10.40;;;;;;;-0.56;67.50;99953.72;5015844;28;20208;-75
2023/02/08 10:26:47;;;;;;;17.80;10.63;;;;;;;-0.53;67.46;99945.94;5015619;28;20313;-76
2023/02/08 10:29:35;;;;;;;17.03;10.40;;;;;;;-0.48;65.59;99939.03;5015291;28;20209;-76
2023/02/08 10:32:15;;;;;;;15.90;9.53;;;;;;;-0.35;66.36;99943.38;5015551;28;20224;-76
2023/02/08 10:34:46;;;;;;;15.67;9.40;;;;;;;-0.30;66.26;99946.88;5016033;28;20213;-76
2023/02/08 10:37:16;;;;;;;17.97;10.30;;;;;;;-0.22;64.86;99929.56;5015511;28;20213;-77
2023/02/08 10:39:43;;;;;;;13.83;9.57;;;;;;;-0.22;64.68;99924.38;5015020;28;20233;-76
2023/02/08 10:42:15;;;;;;;15.47;10.03;;;;;;;-0.03;66.97;99943.47;5015442;28;20213;-77
2023/02/08 10:44:56;;;;;;;16.13;10.03;;;;;;;0.18;67.60;99947.81;5015124;28;20224;-76
2023/02/08 10:47:36;;;;;;;18.85;11.75;;;;;;;0.41;65.41;99933.06;5015059;28;20462;-76
2023/02/08 10:50:06;;;;;;;19.30;10.40;;;;;;;0.48;66.34;99932.19;5014914;28;20201;-76
2023/02/08 10:52:33;;;;;;;17.07;10.87;;;;;;;0.71;69.79;99962.56;5015180;28;20209;-76
2023/02/08 10:54:59;;;;;;;16.10;9.60;;;;;;;0.78;64.88;99926.94;5014880;28;20216;-77
2023/02/08 10:57:30;;;;;;;16.20;10.17;;;;;;;0.78;66.32;99920.03;5015295;28;20205;-77
2023/02/08 11:00:01;;;;;;;17.43;10.77;;;;;;;0.88;65.42;99921.75;5014750;28;20229;-77
2023/02/08 11:02:32;;;;;;;15.60;10.00;;;;;;;0.99;66.23;99922.56;5015208;28;20224;-78
2023/02/08 11:05:02;;;;;;;16.50;11.07;;;;;;;1.06;66.30;99929.47;5014063;28;20447;-76
2023/02/08 11:07:29;;;;;;;17.67;9.50;;;;;;;1.14;65.68;99911.22;5044528;23;20237;-77
2023/02/08 11:10:20;;;;;;;15.93;9.93;;;;;;;1.07;64.12;99900.00;5033349;28;20201;-77
2023/02/08 11:12:55;;;;;;;13.83;9.03;;;;;;;1.13;64.69;99899.97;5034370;28;20592;-76
2023/02/08 11:15:24;;;;;;;15.07;9.13;;;;;;;1.30;65.91;99913.75;5036917;28;20212;-77
2023/02/08 11:17:59;;;;;;;14.17;8.20;;;;;;;1.63;65.15;99913.63;5057200;28;20216;-78
2023/02/08 11:20:31;;;;;;;13.43;7.93;;;;;;;1.72;63.88;99886.63;5059421;28;20231;-77